createdAt,value
2019-01-30T00:01:42.656Z,0.69
2019-01-30T00:04:12.173Z,0.64
2019-01-30T00:06:41.705Z,0.62
2019-01-30T00:09:11.591Z,0.48
2019-01-30T00:11:41.047Z,0.62
2019-01-30T00:14:10.544Z,0.62
2019-01-30T00:16:40.103Z,0.52
2019-01-30T00:19:09.639Z,0.73
2019-01-30T00:21:39.158Z,0.67
2019-01-30T00:24:08.653Z,0.49
2019-01-30T00:26:38.123Z,0.51
2019-01-30T00:29:07.811Z,0.51
2019-01-30T00:31:37.306Z,0.38
2019-01-30T00:34:06.817Z,0.35
2019-01-30T00:36:36.433Z,0.52
2019-01-30T00:39:08.212Z,0.70
2019-01-30T00:41:37.716Z,0.80
2019-01-30T00:44:07.299Z,0.78
2019-01-30T00:46:36.751Z,0.61
2019-01-30T00:49:06.447Z,0.54
2019-01-30T00:51:35.928Z,0.64
2019-01-30T00:54:05.393Z,0.67
2019-01-30T00:56:34.878Z,0.54
2019-01-30T00:59:04.341Z,0.37
2019-01-30T01:01:34.148Z,0.44
2019-01-30T01:04:03.708Z,0.64
2019-01-30T01:06:33.280Z,0.44
2019-01-30T01:09:04.389Z,0.57
2019-01-30T01:11:33.888Z,0.64
2019-01-30T01:14:03.485Z,0.42
2019-01-30T01:16:33.194Z,0.31
2019-01-30T01:19:02.739Z,0.37
2019-01-30T01:21:32.228Z,0.33
2019-01-30T01:24:01.723Z,0.34
2019-01-30T01:26:31.233Z,0.26
2019-01-30T01:29:00.893Z,0.27
2019-01-30T01:31:30.384Z,0.28
2019-01-30T01:33:59.974Z,0.30
2019-01-30T01:36:29.563Z,0.31
2019-01-30T01:38:59.064Z,0.35
2019-01-30T01:41:28.613Z,0.26
2019-01-30T01:43:58.072Z,0.26
2019-01-30T01:46:27.522Z,0.26
2019-01-30T01:48:57.020Z,0.27
2019-01-30T01:51:26.473Z,0.22
2019-01-30T01:53:56.007Z,0.31
2019-01-30T01:56:25.502Z,0.37
2019-01-30T01:58:55.198Z,0.43
2019-01-30T02:01:24.691Z,0.43
2019-01-30T02:03:54.202Z,0.42
2019-01-30T02:06:23.802Z,0.28
2019-01-30T02:08:53.296Z,0.36
2019-01-30T02:11:22.779Z,0.37
2019-01-30T02:13:52.235Z,0.36
2019-01-30T02:16:21.851Z,0.42
2019-01-30T02:18:51.313Z,0.53
2019-01-30T02:21:21.014Z,0.34
2019-01-30T02:23:50.478Z,0.33
2019-01-30T02:26:19.937Z,0.33
2019-01-30T02:28:49.419Z,0.36
2019-01-30T02:31:18.875Z,0.51
2019-01-30T02:33:48.379Z,0.51
2019-01-30T02:36:17.845Z,0.61
2019-01-30T02:38:47.331Z,0.49
2019-01-30T02:41:16.860Z,0.39
2019-01-30T02:43:46.335Z,0.32
2019-01-30T02:46:15.842Z,0.19
2019-01-30T02:48:45.494Z,0.42
2019-01-30T02:51:15.101Z,0.55
2019-01-30T02:53:44.606Z,0.50
2019-01-30T02:56:14.092Z,0.23
2019-01-30T02:58:43.549Z,0.25
2019-01-30T03:01:13.094Z,0.26
2019-01-30T03:03:42.613Z,0.19
2019-01-30T03:06:12.322Z,0.29
2019-01-30T03:08:41.777Z,0.42
2019-01-30T03:11:11.214Z,0.32
2019-01-30T03:13:40.697Z,0.35
2019-01-30T03:16:10.464Z,0.28
2019-01-30T03:18:40.043Z,0.23
2019-01-30T03:21:09.993Z,0.42
2019-01-30T03:23:39.563Z,0.35
2019-01-30T03:26:09.091Z,0.26
2019-01-30T03:28:38.701Z,0.34
2019-01-30T03:31:17.524Z,0.28
2019-01-30T03:33:39.352Z,0.12
2019-01-30T03:36:08.945Z,0.09
2019-01-30T03:38:38.439Z,0.09
2019-01-30T03:41:07.911Z,0.02
2019-01-30T03:43:37.406Z,0.04
2019-01-30T03:46:06.910Z,0.18
2019-01-30T03:48:36.373Z,0.25
2019-01-30T03:51:06.073Z,0.38
2019-01-30T03:53:35.770Z,0.16
2019-01-30T03:56:05.327Z,0.20
2019-01-30T03:58:34.819Z,0.06
2019-01-30T04:01:04.285Z,0.24
2019-01-30T04:03:34.140Z,0.17
2019-01-30T04:06:03.614Z,0.19
2019-01-30T04:08:33.127Z,0.20
2019-01-30T04:11:02.744Z,0.06
2019-01-30T04:13:32.294Z,0.03
2019-01-30T04:16:01.894Z,0.15
2019-01-30T04:18:31.356Z,0.01
2019-01-30T04:21:00.873Z,0.09
2019-01-30T04:23:30.368Z,0.09
2019-01-30T04:25:59.860Z,0.06
2019-01-30T04:28:29.392Z,0.14
2019-01-30T04:30:58.969Z,0.01
2019-01-30T04:33:28.422Z,0.01
2019-01-30T04:35:57.873Z,-0.04
2019-01-30T04:38:27.365Z,0.01
2019-01-30T04:40:56.828Z,0.19
2019-01-30T04:43:26.342Z,0.22
2019-01-30T04:45:55.801Z,0.05
2019-01-30T04:48:25.293Z,0.04
2019-01-30T04:50:54.751Z,0.05
2019-01-30T04:53:24.298Z,0.01
2019-01-30T04:55:53.793Z,-0.02
2019-01-30T04:58:23.311Z,-0.03
2019-01-30T05:00:52.804Z,0.30
2019-01-30T05:03:24.532Z,0.30
2019-01-30T05:05:53.613Z,0.30
2019-01-30T05:08:23.095Z,0.22
2019-01-30T05:10:52.553Z,0.24
2019-01-30T05:13:22.068Z,0.26
2019-01-30T05:15:51.536Z,0.09
2019-01-30T05:18:21.022Z,0.19
2019-01-30T05:20:50.485Z,0.23
2019-01-30T05:23:19.971Z,0.32
2019-01-30T05:25:49.488Z,0.22
2019-01-30T05:28:18.942Z,0.17
2019-01-30T05:30:48.465Z,0.09
2019-01-30T05:33:18.032Z,0.25
2019-01-30T05:35:47.695Z,0.19
2019-01-30T05:38:17.157Z,0.33
2019-01-30T05:40:46.692Z,0.36
2019-01-30T05:43:16.184Z,0.26
2019-01-30T05:45:45.779Z,0.17
2019-01-30T05:48:16.039Z,0.34
2019-01-30T05:50:45.543Z,0.34
2019-01-30T05:53:15.005Z,0.42
2019-01-30T05:55:44.459Z,0.28
2019-01-30T05:58:14.139Z,0.23
2019-01-30T06:00:44.922Z,0.37
2019-01-30T06:03:14.504Z,0.49
2019-01-30T06:05:44.016Z,0.46
2019-01-30T06:08:13.487Z,0.74
2019-01-30T06:10:42.994Z,0.70
2019-01-30T06:13:12.577Z,0.66
2019-01-30T06:15:42.365Z,0.67
2019-01-30T06:18:11.813Z,0.62
2019-01-30T06:20:41.278Z,0.46
2019-01-30T06:23:10.756Z,0.70
2019-01-30T06:25:40.221Z,0.47
2019-01-30T06:28:10.269Z,0.51
2019-01-30T06:30:39.714Z,0.33
2019-01-30T06:33:09.229Z,0.23
2019-01-30T06:35:38.718Z,0.40
2019-01-30T06:38:08.353Z,0.49
2019-01-30T06:40:37.841Z,0.59
2019-01-30T06:43:07.314Z,0.74
2019-01-30T06:45:36.851Z,0.81
2019-01-30T06:48:06.875Z,0.74
2019-01-30T06:50:36.430Z,0.82
2019-01-30T06:53:05.896Z,0.67
2019-01-30T06:55:35.379Z,0.80
2019-01-30T06:58:05.276Z,0.85
2019-01-30T07:00:34.973Z,0.98
2019-01-30T07:03:04.673Z,0.85
2019-01-30T07:05:34.160Z,1.01
2019-01-30T07:08:03.699Z,0.98
2019-01-30T07:10:33.161Z,1.02
2019-01-30T07:13:02.666Z,1.07
2019-01-30T07:15:32.219Z,1.13
2019-01-30T07:18:01.685Z,0.94
2019-01-30T07:20:31.413Z,0.99
2019-01-30T07:23:01.127Z,1.08
2019-01-30T07:25:30.620Z,1.20
2019-01-30T07:28:00.102Z,1.18
2019-01-30T07:30:34.878Z,1.04
2019-01-30T07:33:04.562Z,1.01
2019-01-30T07:35:34.049Z,0.92
2019-01-30T07:38:03.554Z,0.90
2019-01-30T07:40:33.088Z,0.94
2019-01-30T07:43:02.572Z,1.04
2019-01-30T07:45:32.263Z,0.62
2019-01-30T07:48:01.926Z,0.44
2019-01-30T07:50:31.375Z,0.52
2019-01-30T07:53:01.238Z,0.78
2019-01-30T07:55:30.695Z,0.66
2019-01-30T07:58:00.179Z,0.83
2019-01-30T08:00:32.120Z,1.04
2019-01-30T08:03:01.616Z,1.21
2019-01-30T08:05:31.661Z,1.27
2019-01-30T08:08:01.353Z,1.33
2019-01-30T08:10:30.821Z,1.32
2019-01-30T08:13:00.328Z,1.19
2019-01-30T08:15:29.782Z,1.04
2019-01-30T08:17:59.495Z,1.21
2019-01-30T08:20:28.986Z,1.33
2019-01-30T08:22:58.693Z,1.43
2019-01-30T08:25:28.335Z,1.50
2019-01-30T08:27:58.141Z,1.63
2019-01-30T08:30:30.054Z,1.77
2019-01-30T08:33:04.550Z,1.74
2019-01-30T08:35:33.782Z,1.78
2019-01-30T08:38:03.227Z,1.67
2019-01-30T08:40:32.813Z,1.76
2019-01-30T08:43:02.334Z,1.77
2019-01-30T08:45:32.683Z,1.63
2019-01-30T08:48:03.297Z,1.84
2019-01-30T08:50:32.864Z,1.89
2019-01-30T08:53:02.610Z,1.84
2019-01-30T08:55:32.120Z,1.88
2019-01-30T08:58:01.578Z,2.04
2019-01-30T09:00:31.165Z,2.13
2019-01-30T09:03:00.622Z,1.86
2019-01-30T09:05:30.079Z,2.02
2019-01-30T09:07:59.910Z,1.99
2019-01-30T09:10:30.097Z,2.21
2019-01-30T09:12:59.673Z,2.29
2019-01-30T09:15:29.699Z,2.32
2019-01-30T09:17:59.390Z,2.46
2019-01-30T09:20:29.014Z,2.17
2019-01-30T09:22:58.681Z,2.46
2019-01-30T09:25:29.958Z,2.29
2019-01-30T09:28:00.769Z,2.03
2019-01-30T09:30:35.874Z,2.26
2019-01-30T09:33:07.414Z,2.18
2019-01-30T09:35:36.966Z,2.11
2019-01-30T09:38:06.662Z,2.22
2019-01-30T09:40:36.523Z,2.35
2019-01-30T09:43:06.323Z,2.44
2019-01-30T09:45:36.757Z,2.32
2019-01-30T09:48:07.810Z,2.41
2019-01-30T09:50:37.274Z,2.50
2019-01-30T09:53:10.311Z,2.61
2019-01-30T09:55:39.840Z,2.70
2019-01-30T09:58:09.326Z,2.67
2019-01-30T10:00:39.385Z,2.68
2019-01-30T10:03:08.955Z,2.87
2019-01-30T10:05:38.662Z,2.37
2019-01-30T10:08:09.331Z,2.56
2019-01-30T10:10:40.230Z,2.61
2019-01-30T10:13:10.517Z,2.83
2019-01-30T10:15:42.304Z,2.68
2019-01-30T10:18:14.253Z,3.00
2019-01-30T10:20:45.781Z,3.10
2019-01-30T10:23:15.384Z,2.72
2019-01-30T10:25:45.063Z,2.94
2019-01-30T10:28:16.868Z,3.00
2019-01-30T10:30:46.687Z,3.18
2019-01-30T10:33:16.764Z,3.37
2019-01-30T10:35:47.192Z,3.52
2019-01-30T10:38:16.827Z,3.57
2019-01-30T10:40:46.299Z,3.58
2019-01-30T10:43:15.894Z,3.51
2019-01-30T10:45:45.477Z,3.49
2019-01-30T10:48:15.090Z,3.41
2019-01-30T10:50:44.502Z,3.52
2019-01-30T10:53:14.076Z,3.57
2019-01-30T10:55:43.609Z,3.38
2019-01-30T10:58:15.971Z,3.44
2019-01-30T11:00:51.125Z,3.37
2019-01-30T11:03:20.657Z,3.58
2019-01-30T11:05:50.324Z,3.59
2019-01-30T11:08:20.012Z,3.77
2019-01-30T11:10:50.912Z,3.72
2019-01-30T11:13:21.201Z,3.56
2019-01-30T11:15:50.694Z,3.67
2019-01-30T11:18:20.609Z,3.99
2019-01-30T11:20:50.123Z,4.10
2019-01-30T11:23:19.707Z,4.36
2019-01-30T11:25:50.534Z,4.46
2019-01-30T11:28:20.064Z,4.38
2019-01-30T11:30:49.514Z,4.52
2019-01-30T11:33:19.001Z,4.62
2019-01-30T11:35:48.415Z,4.77
2019-01-30T11:38:17.796Z,4.69
2019-01-30T11:40:47.302Z,4.78
2019-01-30T11:43:17.116Z,4.61
2019-01-30T11:45:47.015Z,4.68
2019-01-30T11:48:16.512Z,4.61
2019-01-30T11:50:46.018Z,4.80
2019-01-30T11:53:15.546Z,4.80
2019-01-30T11:55:44.971Z,4.88
2019-01-30T11:58:14.375Z,4.78
2019-01-30T12:00:51.253Z,5.07
2019-01-30T12:03:21.027Z,5.11
2019-01-30T12:05:50.452Z,5.07
2019-01-30T12:08:19.922Z,5.15
2019-01-30T12:10:49.406Z,5.37
2019-01-30T12:13:18.830Z,5.51
2019-01-30T12:15:48.262Z,5.48
2019-01-30T12:18:17.688Z,5.54
2019-01-30T12:20:47.276Z,5.79
2019-01-30T12:23:16.877Z,5.89
2019-01-30T12:25:46.411Z,5.82
2019-01-30T12:28:15.817Z,6.04
2019-01-30T12:30:45.297Z,6.11
2019-01-30T12:33:14.905Z,5.91
2019-01-30T12:35:44.304Z,6.08
2019-01-30T12:38:13.721Z,6.68
2019-01-30T12:40:43.141Z,7.46
2019-01-30T12:43:12.537Z,7.69
2019-01-30T12:45:41.974Z,7.41
2019-01-30T12:48:11.378Z,7.17
2019-01-30T12:50:40.988Z,7.42
2019-01-30T12:53:10.383Z,7.91
2019-01-30T12:55:40.376Z,8.44
2019-01-30T12:58:10.356Z,8.38
2019-01-30T13:00:41.610Z,8.40
2019-01-30T13:03:11.020Z,7.78
2019-01-30T13:05:40.387Z,7.17
2019-01-30T13:08:10.283Z,6.99
2019-01-30T13:10:39.642Z,6.82
2019-01-30T13:13:09.062Z,6.64
2019-01-30T13:15:38.489Z,6.71
2019-01-30T13:18:17.644Z,6.50
2019-01-30T13:20:39.268Z,6.61
2019-01-30T13:23:08.664Z,5.98
2019-01-30T13:25:38.086Z,6.05
2019-01-30T13:28:08.118Z,6.05
2019-01-30T13:30:39.930Z,6.06
2019-01-30T13:33:11.079Z,5.88
2019-01-30T13:35:40.670Z,5.81
2019-01-30T13:38:10.298Z,5.94
2019-01-30T13:40:41.315Z,5.88
2019-01-30T13:43:10.694Z,5.95
2019-01-30T13:45:40.195Z,5.93
2019-01-30T13:48:15.457Z,5.88
2019-01-30T13:50:44.824Z,5.77
2019-01-30T13:53:14.507Z,5.68
2019-01-30T13:55:44.069Z,5.65
2019-01-30T13:58:13.465Z,5.55
2019-01-30T14:00:43.183Z,5.59
2019-01-30T14:03:12.613Z,5.53
2019-01-30T14:05:42.015Z,5.39
2019-01-30T14:08:13.027Z,5.44
2019-01-30T14:10:42.689Z,5.40
2019-01-30T14:13:12.151Z,5.41
2019-01-30T14:15:41.647Z,5.25
2019-01-30T14:18:11.012Z,5.20
2019-01-30T14:20:40.397Z,5.29
2019-01-30T14:23:09.789Z,5.14
2019-01-30T14:25:39.375Z,5.22
2019-01-30T14:28:09.486Z,5.21
2019-01-30T14:30:40.507Z,5.05
2019-01-30T14:33:10.240Z,5.11
2019-01-30T14:35:42.102Z,4.98
2019-01-30T14:38:12.017Z,5.04
2019-01-30T14:40:41.901Z,5.08
2019-01-30T14:43:11.439Z,5.12
2019-01-30T14:45:40.897Z,5.00
2019-01-30T14:48:10.293Z,4.96
2019-01-30T14:50:39.881Z,5.13
2019-01-30T14:53:09.236Z,5.06
2019-01-30T14:55:38.708Z,4.93
2019-01-30T14:58:09.516Z,4.97
2019-01-30T15:00:38.940Z,5.00
2019-01-30T15:03:08.715Z,5.00
2019-01-30T15:05:38.173Z,4.83
2019-01-30T15:08:07.685Z,4.72
2019-01-30T15:10:37.061Z,4.87
2019-01-30T15:13:07.829Z,4.83
2019-01-30T15:15:37.463Z,4.99
2019-01-30T15:18:07.986Z,5.09
2019-01-30T15:20:38.382Z,5.07
2019-01-30T15:23:09.470Z,4.94
2019-01-30T15:25:39.024Z,5.01
2019-01-30T15:28:09.290Z,4.69
2019-01-30T15:30:47.078Z,4.75
2019-01-30T15:33:16.609Z,4.90
2019-01-30T15:35:46.136Z,4.89
2019-01-30T15:38:20.525Z,4.81
2019-01-30T15:40:48.593Z,4.84
2019-01-30T15:43:18.018Z,4.82
2019-01-30T15:45:47.408Z,4.75
2019-01-30T15:48:17.847Z,4.72
2019-01-30T15:50:47.267Z,4.78
2019-01-30T15:53:19.591Z,4.79
2019-01-30T15:55:49.082Z,4.73
2019-01-30T15:58:18.525Z,4.80
2019-01-30T16:01:12.953Z,4.69
2019-01-30T16:03:42.355Z,4.66
2019-01-30T16:06:11.758Z,4.69
2019-01-30T16:08:41.134Z,4.69
2019-01-30T16:11:10.729Z,4.56
2019-01-30T16:13:40.544Z,4.59
2019-01-30T16:16:09.916Z,4.63
2019-01-30T16:18:39.374Z,4.60
2019-01-30T16:21:08.889Z,4.50
2019-01-30T16:23:38.396Z,4.52
2019-01-30T16:26:07.923Z,4.55
2019-01-30T16:28:37.567Z,4.52
2019-01-30T16:31:08.867Z,4.49
2019-01-30T16:33:38.342Z,4.35
2019-01-30T16:36:07.751Z,4.49
2019-01-30T16:38:37.199Z,4.56
2019-01-30T16:41:06.788Z,4.48
2019-01-30T16:43:36.276Z,4.60
2019-01-30T16:46:06.816Z,4.50
2019-01-30T16:48:36.218Z,4.62
2019-01-30T16:51:05.698Z,4.66
2019-01-30T16:53:35.115Z,4.59
2019-01-30T16:56:05.128Z,4.39
2019-01-30T16:58:34.567Z,4.54
2019-01-30T17:01:04.021Z,4.40
2019-01-30T17:03:33.475Z,4.45
2019-01-30T17:06:07.449Z,4.66
2019-01-30T17:08:33.994Z,4.29
2019-01-30T17:11:03.483Z,4.13
2019-01-30T17:13:32.894Z,4.26
2019-01-30T17:16:03.760Z,4.20
2019-01-30T17:18:33.258Z,4.07
2019-01-30T17:21:02.786Z,4.08
2019-01-30T17:23:33.022Z,4.14
2019-01-30T17:26:02.754Z,4.05
2019-01-30T17:28:32.251Z,4.01
2019-01-30T17:31:11.648Z,3.97
2019-01-30T17:33:41.184Z,3.99
2019-01-30T17:36:18.220Z,4.08
2019-01-30T17:38:41.785Z,4.06
2019-01-30T17:41:11.326Z,4.00
2019-01-30T17:43:40.771Z,3.99
2019-01-30T17:46:10.394Z,3.88
2019-01-30T17:48:40.114Z,3.96
2019-01-30T17:51:09.569Z,3.97
2019-01-30T17:53:39.191Z,3.92
2019-01-30T17:56:08.634Z,3.89
2019-01-30T17:58:38.073Z,3.99
2019-01-30T18:01:07.524Z,3.86
2019-01-30T18:03:36.920Z,4.30
2019-01-30T18:06:06.349Z,4.06
2019-01-30T18:08:35.821Z,3.98
2019-01-30T18:11:05.565Z,4.06
2019-01-30T18:13:35.330Z,4.05
2019-01-30T18:16:05.727Z,3.87
2019-01-30T18:18:35.171Z,3.91
2019-01-30T18:21:04.650Z,4.24
2019-01-30T18:23:34.343Z,3.97
2019-01-30T18:26:04.330Z,4.16
2019-01-30T18:28:33.841Z,4.18
2019-01-30T18:31:03.331Z,4.27
2019-01-30T18:33:32.763Z,4.09
2019-01-30T18:36:02.253Z,4.34
2019-01-30T18:38:31.734Z,4.06
2019-01-30T18:41:01.154Z,4.34
2019-01-30T18:43:30.565Z,4.17
2019-01-30T18:46:00.016Z,4.17
2019-01-30T18:48:29.500Z,4.04
2019-01-30T18:50:59.089Z,3.89
2019-01-30T18:53:28.554Z,3.98
2019-01-30T18:55:58.155Z,3.81
2019-01-30T18:58:27.661Z,3.34
2019-01-30T19:00:57.270Z,3.44
2019-01-30T19:03:26.771Z,3.39
2019-01-30T19:05:56.317Z,3.58
2019-01-30T19:08:26.068Z,3.51
2019-01-30T19:10:55.569Z,3.34
2019-01-30T19:13:25.074Z,3.52
2019-01-30T19:15:54.574Z,3.47
2019-01-30T19:18:23.943Z,3.46
2019-01-30T19:20:53.481Z,3.37
2019-01-30T19:23:22.946Z,3.31
2019-01-30T19:25:54.410Z,3.42
2019-01-30T19:28:24.012Z,3.56
2019-01-30T19:30:53.507Z,3.55
2019-01-30T19:33:23.295Z,3.47
2019-01-30T19:35:52.844Z,3.41
2019-01-30T19:38:22.337Z,3.19
2019-01-30T19:40:51.903Z,2.73
2019-01-30T19:43:21.397Z,2.51
2019-01-30T19:45:50.848Z,2.83
2019-01-30T19:48:20.344Z,2.85
2019-01-30T19:50:49.935Z,2.62
2019-01-30T19:53:19.509Z,2.31
2019-01-30T19:55:48.997Z,2.41
2019-01-30T19:58:18.530Z,2.43
2019-01-30T20:00:49.643Z,2.62
2019-01-30T20:03:21.982Z,2.29
2019-01-30T20:05:51.588Z,2.54
2019-01-30T20:08:21.044Z,2.39
2019-01-30T20:10:50.757Z,2.54
2019-01-30T20:13:20.231Z,2.62
2019-01-30T20:15:50.186Z,2.63
2019-01-30T20:18:20.281Z,2.87
2019-01-30T20:20:49.740Z,2.82
2019-01-30T20:23:19.775Z,2.90
2019-01-30T20:25:49.299Z,3.12
2019-01-30T20:28:18.878Z,2.98
2019-01-30T20:30:48.387Z,2.69
2019-01-30T20:33:17.953Z,2.91
2019-01-30T20:35:47.435Z,3.08
2019-01-30T20:38:16.938Z,2.88
2019-01-30T20:40:46.438Z,2.63
2019-01-30T20:43:16.156Z,2.77
2019-01-30T20:45:45.656Z,2.83
2019-01-30T20:48:15.150Z,2.89
2019-01-30T20:50:44.651Z,2.79
2019-01-30T20:53:14.152Z,2.69
2019-01-30T20:55:44.792Z,2.84
2019-01-30T20:58:14.260Z,2.95
2019-01-30T21:00:43.760Z,2.98
2019-01-30T21:03:13.413Z,2.70
2019-01-30T21:05:44.949Z,2.52
2019-01-30T21:08:14.133Z,2.66
2019-01-30T21:10:43.831Z,2.69
2019-01-30T21:13:13.489Z,2.82
2019-01-30T21:15:42.978Z,2.77
2019-01-30T21:18:12.646Z,2.70
2019-01-30T21:20:42.162Z,2.67
2019-01-30T21:23:12.008Z,2.63
2019-01-30T21:25:41.580Z,2.59
2019-01-30T21:28:11.212Z,2.54
2019-01-30T21:30:40.911Z,2.75
2019-01-30T21:33:10.571Z,2.85
2019-01-30T21:35:40.083Z,2.85
2019-01-30T21:38:09.592Z,2.82
2019-01-30T21:40:39.121Z,2.86
2019-01-30T21:43:08.651Z,2.86
2019-01-30T21:45:38.196Z,3.08
2019-01-30T21:48:08.152Z,3.29
2019-01-30T21:50:37.641Z,3.40
2019-01-30T21:53:09.648Z,2.88
2019-01-30T21:55:39.206Z,3.20
2019-01-30T21:58:08.730Z,3.25
2019-01-30T22:00:38.235Z,3.36
2019-01-30T22:03:07.897Z,2.91
2019-01-30T22:05:37.377Z,3.08
2019-01-30T22:08:07.168Z,2.96
2019-01-30T22:10:36.825Z,2.73
2019-01-30T22:13:06.544Z,2.54
2019-01-30T22:15:36.081Z,2.65
2019-01-30T22:18:05.789Z,2.43
2019-01-30T22:20:35.278Z,2.74
2019-01-30T22:23:04.959Z,2.44
2019-01-30T22:25:34.422Z,2.75
2019-01-30T22:28:04.234Z,2.48
2019-01-30T22:30:35.736Z,2.61
2019-01-30T22:33:06.123Z,2.45
2019-01-30T22:35:35.686Z,2.27
2019-01-30T22:38:12.612Z,2.38
2019-01-30T22:40:36.870Z,2.55
2019-01-30T22:43:06.662Z,2.23
2019-01-30T22:45:36.168Z,2.12
2019-01-30T22:48:06.981Z,2.39
2019-01-30T22:50:36.520Z,2.19
2019-01-30T22:53:06.121Z,2.10
2019-01-30T22:55:35.630Z,2.05
2019-01-30T22:58:05.144Z,1.98
2019-01-30T23:00:55.678Z,1.88
2019-01-30T23:03:45.096Z,2.04
2019-01-30T23:06:26.591Z,2.39
2019-01-30T23:09:21.238Z,2.14
2019-01-30T23:12:15.337Z,1.98
2019-01-30T23:14:56.606Z,2.16
2019-01-30T23:18:06.187Z,2.27
2019-01-30T23:20:49.744Z,2.21
2019-01-30T23:23:48.330Z,2.42
2019-01-30T23:26:38.228Z,2.20
2019-01-30T23:29:54.148Z,2.38
2019-01-30T23:33:22.677Z,2.38
2019-01-30T23:36:27.266Z,2.54
2019-01-30T23:39:48.615Z,2.51
2019-01-30T23:42:59.263Z,2.56
2019-01-30T23:46:07.022Z,2.39
2019-01-30T23:49:09.378Z,2.43
2019-01-30T23:52:12.915Z,2.26
2019-01-30T23:55:22.206Z,2.21
2019-01-30T23:58:41.919Z,2.09
